createdAt,value
2022-12-01T00:01:15.046Z,14.60
2022-12-01T00:03:42.752Z,14.35
2022-12-01T00:06:13.100Z,14.68
2022-12-01T00:09:02.517Z,15.55
2022-12-01T00:11:29.256Z,15.38
2022-12-01T00:13:57.130Z,14.80
2022-12-01T00:16:25.247Z,16.02
2022-12-01T00:18:54.018Z,13.85
2022-12-01T00:21:24.286Z,15.13
2022-12-01T00:23:54.849Z,14.65
2022-12-01T00:26:23.985Z,16.83
2022-12-01T00:28:52.892Z,16.38
2022-12-01T00:31:21.060Z,13.55
2022-12-01T00:33:50.824Z,15.90
2022-12-01T00:36:18.780Z,16.38
2022-12-01T00:38:46.997Z,15.80
2022-12-01T00:41:16.001Z,16.02
2022-12-01T00:43:44.021Z,12.82
2022-12-01T00:46:11.839Z,16.38
2022-12-01T00:48:39.670Z,14.15
2022-12-01T00:51:08.164Z,15.70
2022-12-01T00:53:35.955Z,16.75
2022-12-01T00:56:03.683Z,14.93
2022-12-01T00:58:32.700Z,13.05
2022-12-01T01:01:01.464Z,13.43
2022-12-01T01:03:30.276Z,16.90
2022-12-01T01:06:04.044Z,12.40
2022-12-01T01:08:31.805Z,12.68
2022-12-01T01:11:01.012Z,14.85
2022-12-01T01:13:29.572Z,12.88
2022-12-01T01:16:02.958Z,11.90
2022-12-01T01:18:31.038Z,12.45
2022-12-01T01:21:00.169Z,12.65
2022-12-01T01:23:28.273Z,12.85
2022-12-01T01:26:03.033Z,14.85
2022-12-01T01:28:31.130Z,13.97
2022-12-01T01:30:59.242Z,11.57
2022-12-01T01:33:28.338Z,11.10
2022-12-01T01:35:59.816Z,11.52
2022-12-01T01:38:27.539Z,11.90
2022-12-01T01:40:55.415Z,12.10
2022-12-01T01:43:41.635Z,13.52
2022-12-01T01:46:11.118Z,13.82
2022-12-01T01:48:43.145Z,13.18
2022-12-01T01:51:12.732Z,11.98
2022-12-01T01:53:40.448Z,11.82
2022-12-01T01:56:09.671Z,11.75
2022-12-01T01:58:39.141Z,11.32
2022-12-01T02:01:07.883Z,12.40
2022-12-01T02:03:38.191Z,12.73
2022-12-01T02:06:09.398Z,13.30
2022-12-01T02:08:38.189Z,14.57
2022-12-01T02:11:48.283Z,12.80
2022-12-01T02:14:41.113Z,12.73
2022-12-01T02:17:19.366Z,12.88
2022-12-01T02:20:11.020Z,13.05
2022-12-01T02:23:05.732Z,14.55
2022-12-01T02:25:48.543Z,14.00
2022-12-01T02:28:39.328Z,14.55
2022-12-01T02:31:15.692Z,13.15
2022-12-01T02:33:52.356Z,13.77
2022-12-01T02:36:27.990Z,15.52
2022-12-01T02:39:00.729Z,12.48
2022-12-01T02:41:32.959Z,14.65
2022-12-01T02:44:05.882Z,15.82
2022-12-01T02:46:38.822Z,15.38
2022-12-01T02:49:12.101Z,15.45
2022-12-01T02:51:44.572Z,16.70
2022-12-01T02:54:14.985Z,15.95
2022-12-01T02:56:45.828Z,15.77
2022-12-01T02:59:15.767Z,15.30
2022-12-01T03:01:57.678Z,18.20
2022-12-01T03:04:40.029Z,16.90
2022-12-01T03:07:17.351Z,14.85
2022-12-01T03:09:56.024Z,17.05
2022-12-01T03:12:30.840Z,20.52
2022-12-01T03:15:07.948Z,18.90
2022-12-01T03:17:42.137Z,19.13
2022-12-01T03:20:13.900Z,17.77
2022-12-01T03:22:47.850Z,17.05
2022-12-01T03:25:17.255Z,20.45
2022-12-01T03:28:19.309Z,19.15
2022-12-01T03:30:37.873Z,18.85
2022-12-01T03:33:11.558Z,18.27
2022-12-01T03:35:43.879Z,18.30
2022-12-01T03:38:16.698Z,18.02
2022-12-01T03:40:47.426Z,21.02
2022-12-01T03:43:20.661Z,21.10
2022-12-01T03:45:57.340Z,23.83
2022-12-01T03:48:27.806Z,20.65
2022-12-01T03:51:00.894Z,22.25
2022-12-01T03:53:35.109Z,19.25
2022-12-01T03:56:07.218Z,21.30
2022-12-01T03:58:41.188Z,21.27
2022-12-01T04:01:10.041Z,27.85
2022-12-01T04:03:39.299Z,24.63
2022-12-01T04:06:07.930Z,26.05
2022-12-01T04:08:37.421Z,21.70
2022-12-01T04:11:29.636Z,24.90
2022-12-01T04:16:26.779Z,22.23
2022-12-01T04:18:55.962Z,24.40
2022-12-01T04:21:23.622Z,20.33
2022-12-01T04:24:03.391Z,25.90
2022-12-01T04:26:33.215Z,28.48
2022-12-01T04:29:01.087Z,25.33
2022-12-01T04:31:29.051Z,25.52
2022-12-01T04:33:58.903Z,22.95
2022-12-01T04:36:27.499Z,26.00
2022-12-01T04:38:55.146Z,23.23
2022-12-01T04:41:22.947Z,25.95
2022-12-01T04:43:50.636Z,26.30
2022-12-01T04:46:18.499Z,23.77
2022-12-01T04:48:46.255Z,26.48
2022-12-01T04:51:15.292Z,22.73
2022-12-01T04:53:43.066Z,24.90
2022-12-01T04:56:11.123Z,24.65
2022-12-01T04:58:38.844Z,25.45
2022-12-01T05:01:08.410Z,33.60
2022-12-01T05:03:38.083Z,27.48
2022-12-01T05:06:07.166Z,24.90
2022-12-01T05:08:36.230Z,29.30
2022-12-01T05:11:05.005Z,25.75
2022-12-01T05:13:32.798Z,26.95
2022-12-01T05:16:06.441Z,27.20
2022-12-01T05:18:34.488Z,25.88
2022-12-01T05:21:03.797Z,27.80
2022-12-01T05:23:33.759Z,25.73
2022-12-01T05:26:03.958Z,26.77
2022-12-01T05:28:31.688Z,28.85
2022-12-01T05:30:59.991Z,33.22
2022-12-01T05:33:29.089Z,28.52
2022-12-01T05:35:57.042Z,30.83
2022-12-01T05:38:24.838Z,29.13
2022-12-01T05:40:53.260Z,31.45
2022-12-01T05:43:28.777Z,28.80
2022-12-01T05:45:57.604Z,27.63
2022-12-01T05:48:25.551Z,35.75
2022-12-01T05:50:53.491Z,29.65
2022-12-01T05:53:21.755Z,32.22
2022-12-01T05:55:53.115Z,28.38
2022-12-01T05:58:22.362Z,30.45
2022-12-01T06:00:50.223Z,33.75
2022-12-01T06:03:17.934Z,31.42
2022-12-01T06:05:45.611Z,32.35
2022-12-01T06:08:13.712Z,30.92
2022-12-01T06:10:41.406Z,33.22
2022-12-01T06:13:09.155Z,34.50
2022-12-01T06:15:38.308Z,30.38
2022-12-01T06:18:06.089Z,34.92
2022-12-01T06:20:33.891Z,35.70
2022-12-01T06:23:01.677Z,31.52
2022-12-01T06:25:29.400Z,32.33
2022-12-01T06:27:58.251Z,31.50
2022-12-01T06:30:26.628Z,35.10
2022-12-01T06:32:55.703Z,29.92
2022-12-01T06:35:23.434Z,32.75
2022-12-01T06:37:51.241Z,32.33
2022-12-01T06:40:18.967Z,31.67
2022-12-01T06:42:46.800Z,33.55
2022-12-01T06:45:14.619Z,28.00
2022-12-01T06:47:42.353Z,33.15
2022-12-01T06:50:12.267Z,32.22
2022-12-01T06:52:40.029Z,28.75
2022-12-01T06:55:08.325Z,29.90
2022-12-01T06:57:36.351Z,31.85
2022-12-01T07:00:05.639Z,33.45
2022-12-01T07:02:33.655Z,31.83
2022-12-01T07:05:01.508Z,31.45
2022-12-01T07:07:30.742Z,28.45
2022-12-01T07:09:58.467Z,27.23
2022-12-01T07:12:26.180Z,27.30
2022-12-01T07:14:53.827Z,28.98
2022-12-01T07:17:21.568Z,32.17
2022-12-01T07:19:49.675Z,34.67
2022-12-01T07:22:17.611Z,31.63
2022-12-01T07:24:46.701Z,31.10
2022-12-01T07:27:14.535Z,32.75
2022-12-01T07:29:42.290Z,31.80
2022-12-01T07:32:09.998Z,34.95
2022-12-01T07:34:37.806Z,30.23
2022-12-01T07:37:05.479Z,30.35
2022-12-01T07:39:33.119Z,28.55
2022-12-01T07:42:02.193Z,29.95
2022-12-01T07:44:30.001Z,32.03
2022-12-01T07:46:57.702Z,28.02
2022-12-01T07:49:25.687Z,25.48
2022-12-01T07:51:53.432Z,27.95
2022-12-01T07:54:21.311Z,27.15
2022-12-01T07:56:48.990Z,25.70
2022-12-01T07:59:18.091Z,27.58
2022-12-01T08:01:46.216Z,23.98
2022-12-01T08:04:14.060Z,27.70
2022-12-01T08:06:41.762Z,28.63
2022-12-01T08:09:09.781Z,27.75
2022-12-01T08:11:37.467Z,28.00
2022-12-01T08:14:05.187Z,30.65
2022-12-01T08:16:34.291Z,27.85
2022-12-01T08:19:02.024Z,31.60
2022-12-01T08:21:29.745Z,29.80
2022-12-01T08:23:58.769Z,31.17
2022-12-01T08:26:27.889Z,29.27
2022-12-01T08:28:55.593Z,29.25
2022-12-01T08:31:25.637Z,30.33
2022-12-01T08:33:55.330Z,27.75
2022-12-01T08:36:24.323Z,29.25
2022-12-01T08:38:54.419Z,26.27
2022-12-01T08:41:23.049Z,25.77
2022-12-01T08:43:59.253Z,27.23
2022-12-01T08:46:28.376Z,26.25
2022-12-01T08:48:57.893Z,22.88
2022-12-01T08:51:26.710Z,25.42
2022-12-01T08:53:56.258Z,26.40
2022-12-01T08:56:27.768Z,26.15
2022-12-01T08:58:56.071Z,27.92
2022-12-01T09:01:25.619Z,26.30
2022-12-01T09:04:05.130Z,27.17
2022-12-01T09:06:38.822Z,24.65
2022-12-01T09:09:06.830Z,23.58
2022-12-01T09:11:34.505Z,23.65
2022-12-01T09:14:02.587Z,23.02
2022-12-01T09:16:30.445Z,26.27
2022-12-01T09:18:58.305Z,22.80
2022-12-01T09:21:27.712Z,20.35
2022-12-01T09:23:56.760Z,20.25
2022-12-01T09:26:25.110Z,20.60
2022-12-01T09:28:55.191Z,20.65
2022-12-01T09:31:24.098Z,19.15
2022-12-01T09:33:56.549Z,18.73
2022-12-01T09:36:24.590Z,21.83
2022-12-01T09:38:52.758Z,17.52
2022-12-01T09:41:25.341Z,17.15
2022-12-01T09:43:57.720Z,17.60
2022-12-01T09:46:29.783Z,16.80
2022-12-01T09:48:59.482Z,16.63
2022-12-01T09:51:29.813Z,17.30
2022-12-01T09:53:59.646Z,16.75
2022-12-01T09:56:32.014Z,16.10
2022-12-01T09:59:02.632Z,16.77
2022-12-01T10:01:35.496Z,16.13
2022-12-01T10:04:09.089Z,15.80
2022-12-01T10:06:41.652Z,16.98
2022-12-01T10:09:19.988Z,16.50
2022-12-01T10:11:51.812Z,14.98
2022-12-01T10:14:21.074Z,16.35
2022-12-01T10:17:00.271Z,16.95
2022-12-01T10:19:34.671Z,17.50
2022-12-01T10:22:36.002Z,16.17
2022-12-01T10:25:12.237Z,14.90
2022-12-01T10:27:53.931Z,15.02
2022-12-01T10:30:23.699Z,14.60
2022-12-01T10:32:55.087Z,13.80
2022-12-01T10:35:25.268Z,13.50
2022-12-01T10:37:57.160Z,13.68
2022-12-01T10:40:26.891Z,14.52
2022-12-01T10:42:56.495Z,14.07
2022-12-01T10:45:26.809Z,13.02
2022-12-01T10:48:16.389Z,17.27
2022-12-01T10:50:46.201Z,13.40
2022-12-01T10:53:32.229Z,11.77
2022-12-01T10:56:05.855Z,15.23
2022-12-01T10:58:43.459Z,11.70
2022-12-01T11:01:18.911Z,11.88
2022-12-01T11:03:52.677Z,12.82
2022-12-01T11:06:26.843Z,11.85
2022-12-01T11:08:57.927Z,12.57
2022-12-01T11:11:30.016Z,11.57
2022-12-01T11:14:02.517Z,10.93
2022-12-01T11:16:42.175Z,10.95
2022-12-01T11:19:23.540Z,10.85
2022-12-01T11:21:56.593Z,11.63
2022-12-01T11:24:31.436Z,13.90
2022-12-01T11:27:00.257Z,13.90
2022-12-01T11:29:35.442Z,11.98
2022-12-01T11:32:05.848Z,14.60
2022-12-01T11:34:36.016Z,12.07
2022-12-01T11:37:07.346Z,12.75
2022-12-01T11:39:38.474Z,15.60
2022-12-01T11:42:23.970Z,13.63
2022-12-01T11:44:56.099Z,12.25
2022-12-01T11:47:25.765Z,13.85
2022-12-01T11:49:57.472Z,13.00
2022-12-01T11:52:32.560Z,14.20
2022-12-01T11:55:08.385Z,15.95
2022-12-01T11:57:40.554Z,12.98
2022-12-01T12:00:16.203Z,15.88
2022-12-01T12:02:57.447Z,15.15
2022-12-01T12:05:49.709Z,17.77
2022-12-01T12:08:30.566Z,20.05
2022-12-01T12:11:16.216Z,21.83
2022-12-01T12:14:04.052Z,20.30
2022-12-01T12:16:48.895Z,19.15
2022-12-01T12:20:00.203Z,17.92
2022-12-01T12:22:32.470Z,20.83
2022-12-01T12:25:17.568Z,19.98
2022-12-01T12:27:51.745Z,20.02
2022-12-01T12:30:23.451Z,19.58
2022-12-01T12:33:09.462Z,24.27
2022-12-01T12:35:45.729Z,21.42
2022-12-01T12:38:31.376Z,21.98
2022-12-01T12:41:07.588Z,20.65
2022-12-01T12:43:45.896Z,23.83
2022-12-01T12:46:17.967Z,23.38
2022-12-01T12:49:19.666Z,26.30
2022-12-01T12:51:54.031Z,21.20
2022-12-01T12:54:27.612Z,22.77
2022-12-01T12:57:02.067Z,22.77
2022-12-01T12:59:35.277Z,20.80
2022-12-01T13:02:14.077Z,21.27
2022-12-01T13:04:50.219Z,22.30
2022-12-01T13:07:35.559Z,21.38
2022-12-01T13:12:44.645Z,21.27
2022-12-01T13:15:17.164Z,23.38
2022-12-01T13:17:47.715Z,26.02
2022-12-01T13:20:20.248Z,28.50
2022-12-01T13:22:49.156Z,27.60
2022-12-01T13:25:24.112Z,29.33
2022-12-01T13:27:53.381Z,28.05
2022-12-01T13:30:26.789Z,27.85
2022-12-01T13:33:00.864Z,30.30
2022-12-01T13:35:32.166Z,28.80
2022-12-01T13:38:21.811Z,25.55
2022-12-01T13:40:50.200Z,28.45
2022-12-01T13:43:20.907Z,30.83
2022-12-01T13:45:50.410Z,36.28
2022-12-01T13:48:30.900Z,31.95
2022-12-01T13:51:01.916Z,31.92
2022-12-01T13:53:35.343Z,36.47
2022-12-01T13:56:22.953Z,28.48
2022-12-01T13:58:52.797Z,30.10
2022-12-01T14:01:47.162Z,32.35
2022-12-01T14:04:30.490Z,33.38
2022-12-01T14:07:33.306Z,28.38
2022-12-01T14:10:15.459Z,32.75
2022-12-01T14:12:46.511Z,31.08
2022-12-01T14:15:42.265Z,31.92
2022-12-01T14:18:30.626Z,30.10
2022-12-01T14:20:58.284Z,28.33
2022-12-01T14:23:30.560Z,31.23
2022-12-01T14:26:03.982Z,30.83
2022-12-01T14:29:10.303Z,30.05
2022-12-01T14:32:21.151Z,28.83
2022-12-01T14:34:54.530Z,30.75
2022-12-01T14:37:25.787Z,29.45
2022-12-01T14:39:59.400Z,27.45
2022-12-01T14:42:51.046Z,26.63
2022-12-01T14:45:23.862Z,28.52
2022-12-01T14:48:01.184Z,30.00
2022-12-01T14:50:42.220Z,28.30
2022-12-01T14:53:24.809Z,27.30
2022-12-01T14:55:59.689Z,28.67
2022-12-01T14:58:29.005Z,28.25
2022-12-01T15:01:06.955Z,29.73
2022-12-01T15:03:39.441Z,26.45
2022-12-01T15:06:07.635Z,25.58
2022-12-01T15:08:45.933Z,26.63
2022-12-01T15:11:25.307Z,30.80
2022-12-01T15:13:54.915Z,28.42
2022-12-01T15:16:24.915Z,28.90
2022-12-01T15:18:53.401Z,29.92
2022-12-01T15:21:25.185Z,28.90
2022-12-01T15:23:54.855Z,31.83
2022-12-01T15:26:25.538Z,33.10
2022-12-01T15:29:06.233Z,31.13
2022-12-01T15:31:35.986Z,31.63
2022-12-01T15:34:04.130Z,34.47
2022-12-01T15:36:32.185Z,30.67
2022-12-01T15:39:06.852Z,34.40
2022-12-01T15:41:41.280Z,32.53
2022-12-01T15:44:20.089Z,36.17
2022-12-01T15:46:47.774Z,37.10
2022-12-01T15:49:21.108Z,37.05
2022-12-01T15:51:51.414Z,30.77
2022-12-01T15:54:21.620Z,35.35
2022-12-01T15:56:54.810Z,31.75
2022-12-01T15:59:31.065Z,29.30
2022-12-01T16:01:59.504Z,30.33
2022-12-01T16:04:32.244Z,28.58
2022-12-01T16:07:02.877Z,28.50
2022-12-01T16:09:35.221Z,29.23
2022-12-01T16:12:21.904Z,31.98
2022-12-01T16:14:55.735Z,30.30
2022-12-01T16:17:25.176Z,29.92
2022-12-01T16:20:18.071Z,33.08
2022-12-01T16:22:47.294Z,32.75
2022-12-01T16:25:22.207Z,33.75
2022-12-01T16:27:54.916Z,31.40
2022-12-01T16:30:24.805Z,29.27
2022-12-01T16:33:01.514Z,33.20
2022-12-01T16:35:31.391Z,31.27
2022-12-01T16:38:00.194Z,38.00
2022-12-01T16:40:27.951Z,38.47
2022-12-01T16:42:57.362Z,33.00
2022-12-01T16:45:26.658Z,34.13
2022-12-01T16:47:54.326Z,31.40
2022-12-01T16:50:23.150Z,31.25
2022-12-01T16:52:50.831Z,29.83
2022-12-01T16:55:39.444Z,32.20
2022-12-01T16:58:08.474Z,29.30
2022-12-01T17:00:36.623Z,32.03
2022-12-01T17:03:05.294Z,30.77
2022-12-01T17:05:33.112Z,34.45
2022-12-01T17:08:01.019Z,34.55
2022-12-01T17:10:28.934Z,33.10
2022-12-01T17:12:56.610Z,27.98
2022-12-01T17:15:25.694Z,39.50
2022-12-01T17:17:54.347Z,29.98
2022-12-01T17:20:22.065Z,31.98
2022-12-01T17:22:49.761Z,33.30
2022-12-01T17:25:18.018Z,29.98
2022-12-01T17:27:45.706Z,32.00
2022-12-01T17:30:14.106Z,33.47
2022-12-01T17:32:43.404Z,27.65
2022-12-01T17:35:11.236Z,31.27
2022-12-01T17:37:39.090Z,32.40
2022-12-01T17:40:09.094Z,32.03
2022-12-01T17:42:39.505Z,30.38
2022-12-01T17:45:08.271Z,27.90
2022-12-01T17:47:36.423Z,30.92
2022-12-01T17:50:06.963Z,28.60
2022-12-01T17:52:34.684Z,28.98
2022-12-01T17:55:02.465Z,32.47
2022-12-01T17:57:30.336Z,30.83
2022-12-01T17:59:58.186Z,30.63
2022-12-01T18:02:26.002Z,35.42
2022-12-01T18:04:54.183Z,30.15
2022-12-01T18:07:23.603Z,35.15
2022-12-01T18:09:51.455Z,31.90
2022-12-01T18:12:19.162Z,36.90
2022-12-01T18:14:47.401Z,33.95
2022-12-01T18:17:15.288Z,30.67
2022-12-01T18:19:42.976Z,45.80
2022-12-01T18:22:10.663Z,48.65
2022-12-01T18:24:39.842Z,35.42
2022-12-01T18:27:07.959Z,38.53
2022-12-01T18:29:35.725Z,33.08
2022-12-01T18:32:03.420Z,34.10
2022-12-01T18:34:31.272Z,37.35
2022-12-01T18:36:59.449Z,34.92
2022-12-01T18:39:27.224Z,34.35
2022-12-01T18:41:56.289Z,37.45
2022-12-01T18:44:24.263Z,36.33
2022-12-01T18:46:52.121Z,34.85
2022-12-01T18:49:19.971Z,31.85
2022-12-01T18:51:47.666Z,36.83
2022-12-01T18:54:16.887Z,32.03
2022-12-01T18:56:44.676Z,38.28
2022-12-01T18:59:16.818Z,37.67
2022-12-01T19:01:46.416Z,39.78
2022-12-01T19:04:16.078Z,32.67
2022-12-01T19:06:45.530Z,31.25
2022-12-01T19:09:15.281Z,35.05
2022-12-01T19:11:43.620Z,36.55
2022-12-01T19:14:16.395Z,30.55
2022-12-01T19:16:44.682Z,34.97
2022-12-01T19:19:12.570Z,32.88
2022-12-01T19:21:40.557Z,32.00
2022-12-01T19:24:08.661Z,33.33
2022-12-01T19:26:36.433Z,32.05
2022-12-01T19:29:04.490Z,34.92
2022-12-01T19:31:33.530Z,34.00
2022-12-01T19:34:04.705Z,33.33
2022-12-01T19:36:32.519Z,36.67
2022-12-01T19:39:03.972Z,35.05
2022-12-01T19:41:34.982Z,34.33
2022-12-01T19:44:02.799Z,34.15
2022-12-01T19:46:30.502Z,36.10
2022-12-01T19:49:01.498Z,35.72
2022-12-01T19:51:31.010Z,35.60
2022-12-01T19:53:59.840Z,36.72
2022-12-01T19:56:29.260Z,36.20
2022-12-01T19:58:57.523Z,35.75
2022-12-01T20:01:25.461Z,37.38
2022-12-01T20:03:55.148Z,36.72
2022-12-01T20:06:26.134Z,35.13
2022-12-01T20:08:55.603Z,35.15
2022-12-01T20:11:23.946Z,34.55
2022-12-01T20:13:53.841Z,32.33
2022-12-01T20:16:23.912Z,33.72
2022-12-01T20:18:52.704Z,33.30
2022-12-01T20:21:23.347Z,34.80
2022-12-01T20:23:57.586Z,30.23
2022-12-01T20:26:30.431Z,31.83
2022-12-01T20:29:00.812Z,35.42
2022-12-01T20:31:30.740Z,32.45
2022-12-01T20:34:00.615Z,39.33
2022-12-01T20:36:29.265Z,44.97
2022-12-01T20:38:58.470Z,36.70
2022-12-01T20:41:26.205Z,34.15
2022-12-01T20:43:54.154Z,45.03
2022-12-01T20:46:21.956Z,32.35
2022-12-01T20:48:49.679Z,33.40
2022-12-01T20:51:17.521Z,32.35
2022-12-01T20:54:05.398Z,32.95
2022-12-01T20:56:34.645Z,33.38
2022-12-01T20:59:02.616Z,32.28
2022-12-01T21:01:30.409Z,30.85
2022-12-01T21:03:58.318Z,31.08
2022-12-01T21:06:28.675Z,32.08
2022-12-01T21:08:56.943Z,33.80
2022-12-01T21:11:40.732Z,31.98
2022-12-01T21:14:16.719Z,32.63
2022-12-01T21:16:48.134Z,37.38
2022-12-01T21:19:22.963Z,34.42
2022-12-01T21:21:50.798Z,33.60
2022-12-01T21:24:22.034Z,32.05
2022-12-01T21:26:51.577Z,29.17
2022-12-01T21:29:24.983Z,32.03
2022-12-01T21:31:57.307Z,32.75
2022-12-01T21:34:27.455Z,32.75
2022-12-01T21:36:58.937Z,32.28
2022-12-01T21:39:27.366Z,29.25
2022-12-01T21:41:57.366Z,35.13
2022-12-01T21:44:33.837Z,29.55
2022-12-01T21:47:12.146Z,30.33
2022-12-01T21:49:40.659Z,28.83
2022-12-01T21:52:15.351Z,32.78
2022-12-01T21:54:43.346Z,32.22
2022-12-01T21:57:30.549Z,30.88
2022-12-01T22:00:24.129Z,31.92
2022-12-01T22:02:54.312Z,33.53
2022-12-01T22:05:31.072Z,29.42
2022-12-01T22:08:09.190Z,29.88
2022-12-01T22:10:56.791Z,34.70
2022-12-01T22:13:33.489Z,33.05
2022-12-01T22:16:02.638Z,34.10
2022-12-01T22:18:36.866Z,31.70
2022-12-01T22:21:35.672Z,27.77
2022-12-01T22:24:21.973Z,30.23
2022-12-01T22:26:53.466Z,31.27
2022-12-01T22:29:27.933Z,31.20
2022-12-01T22:32:33.023Z,33.85
2022-12-01T22:35:34.652Z,33.63
2022-12-01T22:38:20.036Z,29.88
2022-12-01T22:40:56.212Z,29.38
2022-12-01T22:43:27.691Z,29.42
2022-12-01T22:46:16.497Z,34.78
2022-12-01T22:48:47.942Z,35.00
2022-12-01T22:51:28.479Z,31.33
2022-12-01T22:54:00.871Z,31.17
2022-12-01T22:56:32.683Z,30.73
2022-12-01T22:59:00.543Z,31.67
2022-12-01T23:01:30.953Z,29.75
2022-12-01T23:04:22.608Z,32.33
2022-12-01T23:06:58.922Z,30.45
2022-12-01T23:09:32.136Z,28.13
2022-12-01T23:12:04.251Z,29.35
2022-12-01T23:14:34.419Z,27.30
2022-12-01T23:17:08.631Z,25.40
2022-12-01T23:19:37.655Z,24.55
2022-12-01T23:22:05.743Z,26.63
2022-12-01T23:24:34.426Z,24.30
2022-12-01T23:27:02.377Z,24.20
2022-12-01T23:29:31.245Z,24.40
2022-12-01T23:31:59.144Z,23.48
2022-12-01T23:34:26.896Z,26.05
2022-12-01T23:36:56.209Z,25.88
2022-12-01T23:39:32.974Z,24.17
2022-12-01T23:42:01.098Z,24.65
2022-12-01T23:44:39.582Z,22.52
2022-12-01T23:47:17.880Z,27.58
2022-12-01T23:49:47.422Z,26.50
2022-12-01T23:52:20.586Z,25.52
2022-12-01T23:54:49.293Z,28.13
2022-12-01T23:57:21.403Z,27.10
2022-12-01T23:59:50.287Z,26.15
